Aylmer, North Dakota
Current Conditions -  °F | °C
As of 2:55 PM on Tuesday 25 Nov 2014 (Local Time) from K5H4 Reporting Station
Moderate Snow Moderate Snow  
Wind Chill: -9°   Ceiling: 100
Heat Index: -3°   Visibility: 0.5mi
Dew Point: -3°   Wind: 14mph
Humidity: 100%   Direction: 100°E
Pressure: 29.76"   Gusts: NA
Location:  47.8487°N, 100.262°W
Report Text: K5H4 252055Z AUTO 10012KT 1/2SM SN OVC001 M03/M03 A2976 RMK AO2 P0011
Loading
Personal Weather Stations






























Interactive Weather Map New forecast layout! Learn more

10-Day Weather Forecast

Advertisements
Track Severe Weather on mobile